sensor_id;sensor_type;location;lat;lon;timestamp;temperature;humidity
36856;DHT22;22788;51.434;6.786;2023-04-16T00:01:49;9.70;99.90
36856;DHT22;22788;51.434;6.786;2023-04-16T00:04:14;9.70;99.90
36856;DHT22;22788;51.434;6.786;2023-04-16T00:06:40;9.80;99.90
36856;DHT22;22788;51.434;6.786;2023-04-16T00:09:05;9.80;99.90
36856;DHT22;22788;51.434;6.786;2023-04-16T00:11:31;9.80;99.90
36856;DHT22;22788;51.434;6.786;2023-04-16T00:13:58;9.80;99.90
36856;DHT22;22788;51.434;6.786;2023-04-16T00:16:24;9.80;99.90
36856;DHT22;22788;51.434;6.786;2023-04-16T00:18:49;9.70;99.90
36856;DHT22;22788;51.434;6.786;2023-04-16T00:21:15;9.70;99.90
36856;DHT22;22788;51.434;6.786;2023-04-16T00:23:41;9.80;99.90
36856;DHT22;22788;51.434;6.786;2023-04-16T00:26:07;9.80;99.90
36856;DHT22;22788;51.434;6.786;2023-04-16T00:28:33;9.80;99.90
36856;DHT22;22788;51.434;6.786;2023-04-16T00:31:00;10.10;99.90
36856;DHT22;22788;51.434;6.786;2023-04-16T00:33:26;10.00;99.90
36856;DHT22;22788;51.434;6.786;2023-04-16T00:35:51;9.90;99.90
36856;DHT22;22788;51.434;6.786;2023-04-16T00:38:17;9.80;99.90
36856;DHT22;22788;51.434;6.786;2023-04-16T00:40:43;9.80;99.90
36856;DHT22;22788;51.434;6.786;2023-04-16T00:43:08;9.80;99.90
36856;DHT22;22788;51.434;6.786;2023-04-16T00:45:34;9.80;99.90
36856;DHT22;22788;51.434;6.786;2023-04-16T00:48:02;9.70;99.90
36856;DHT22;22788;51.434;6.786;2023-04-16T00:50:28;9.80;99.90
36856;DHT22;22788;51.434;6.786;2023-04-16T00:52:54;9.90;99.90
36856;DHT22;22788;51.434;6.786;2023-04-16T00:55:20;9.90;99.90
36856;DHT22;22788;51.434;6.786;2023-04-16T00:57:46;9.80;99.90
36856;DHT22;22788;51.434;6.786;2023-04-16T01:00:12;9.80;99.90
36856;DHT22;22788;51.434;6.786;2023-04-16T01:02:38;9.80;99.90
36856;DHT22;22788;51.434;6.786;2023-04-16T01:05:06;9.70;99.90
36856;DHT22;22788;51.434;6.786;2023-04-16T01:07:31;9.70;99.90
36856;DHT22;22788;51.434;6.786;2023-04-16T01:09:57;9.80;99.90
36856;DHT22;22788;51.434;6.786;2023-04-16T01:12:22;9.80;99.90
36856;DHT22;22788;51.434;6.786;2023-04-16T01:14:48;9.80;99.90
36856;DHT22;22788;51.434;6.786;2023-04-16T01:17:14;9.70;99.90
36856;DHT22;22788;51.434;6.786;2023-04-16T01:19:40;9.80;99.90
36856;DHT22;22788;51.434;6.786;2023-04-16T01:22:07;9.70;99.90
36856;DHT22;22788;51.434;6.786;2023-04-16T01:24:33;9.70;99.90
36856;DHT22;22788;51.434;6.786;2023-04-16T01:26:59;9.70;99.90
36856;DHT22;22788;51.434;6.786;2023-04-16T01:29:25;9.80;99.90
36856;DHT22;22788;51.434;6.786;2023-04-16T01:31:50;10.00;99.90
36856;DHT22;22788;51.434;6.786;2023-04-16T01:34:17;10.00;99.90
36856;DHT22;22788;51.434;6.786;2023-04-16T01:36:43;10.00;99.90
36856;DHT22;22788;51.434;6.786;2023-04-16T01:39:10;9.80;99.90
36856;DHT22;22788;51.434;6.786;2023-04-16T01:41:36;9.80;99.90
36856;DHT22;22788;51.434;6.786;2023-04-16T01:44:01;9.70;99.90
36856;DHT22;22788;51.434;6.786;2023-04-16T01:46:29;9.80;99.90
36856;DHT22;22788;51.434;6.786;2023-04-16T01:48:55;9.70;99.90
36856;DHT22;22788;51.434;6.786;2023-04-16T01:51:21;9.70;99.90
36856;DHT22;22788;51.434;6.786;2023-04-16T01:53:46;9.70;99.90
36856;DHT22;22788;51.434;6.786;2023-04-16T01:56:13;9.60;99.90
36856;DHT22;22788;51.434;6.786;2023-04-16T01:58:39;9.60;99.90
36856;DHT22;22788;51.434;6.786;2023-04-16T02:01:05;9.60;99.90
36856;DHT22;22788;51.434;6.786;2023-04-16T02:03:30;9.70;99.90
36856;DHT22;22788;51.434;6.786;2023-04-16T02:05:56;9.60;99.90
36856;DHT22;22788;51.434;6.786;2023-04-16T02:08:22;9.60;99.90
36856;DHT22;22788;51.434;6.786;2023-04-16T02:10:48;9.70;99.90
36856;DHT22;22788;51.434;6.786;2023-04-16T02:13:16;9.90;99.90
36856;DHT22;22788;51.434;6.786;2023-04-16T02:15:44;9.80;99.90
36856;DHT22;22788;51.434;6.786;2023-04-16T02:18:09;9.70;99.90
36856;DHT22;22788;51.434;6.786;2023-04-16T02:20:38;9.70;99.90
36856;DHT22;22788;51.434;6.786;2023-04-16T02:23:04;9.80;99.90
36856;DHT22;22788;51.434;6.786;2023-04-16T02:25:30;9.80;99.90
36856;DHT22;22788;51.434;6.786;2023-04-16T02:27:55;9.70;99.90
36856;DHT22;22788;51.434;6.786;2023-04-16T02:30:22;9.70;99.90
36856;DHT22;22788;51.434;6.786;2023-04-16T02:32:48;9.60;99.90
36856;DHT22;22788;51.434;6.786;2023-04-16T02:35:14;9.60;99.90
36856;DHT22;22788;51.434;6.786;2023-04-16T02:37:39;9.70;99.90
36856;DHT22;22788;51.434;6.786;2023-04-16T02:40:06;9.70;99.90
36856;DHT22;22788;51.434;6.786;2023-04-16T02:42:32;9.70;99.90
36856;DHT22;22788;51.434;6.786;2023-04-16T02:44:57;9.70;99.90
36856;DHT22;22788;51.434;6.786;2023-04-16T02:47:24;9.60;99.90
36856;DHT22;22788;51.434;6.786;2023-04-16T02:49:50;9.60;99.90
36856;DHT22;22788;51.434;6.786;2023-04-16T02:52:15;9.60;99.90
36856;DHT22;22788;51.434;6.786;2023-04-16T02:54:41;9.70;99.90
36856;DHT22;22788;51.434;6.786;2023-04-16T02:57:07;9.60;99.90
36856;DHT22;22788;51.434;6.786;2023-04-16T02:59:32;9.60;99.90
36856;DHT22;22788;51.434;6.786;2023-04-16T03:01:58;9.60;99.90
36856;DHT22;22788;51.434;6.786;2023-04-16T03:04:25;9.60;99.90
36856;DHT22;22788;51.434;6.786;2023-04-16T03:06:50;9.50;99.90
36856;DHT22;22788;51.434;6.786;2023-04-16T03:09:16;9.60;99.90
36856;DHT22;22788;51.434;6.786;2023-04-16T03:11:41;9.60;99.90
36856;DHT22;22788;51.434;6.786;2023-04-16T03:14:07;9.50;99.90
36856;DHT22;22788;51.434;6.786;2023-04-16T03:16:33;9.50;99.90
36856;DHT22;22788;51.434;6.786;2023-04-16T03:18:58;9.50;99.90
36856;DHT22;22788;51.434;6.786;2023-04-16T03:21:25;9.50;99.90
36856;DHT22;22788;51.434;6.786;2023-04-16T03:23:51;9.70;99.90
36856;DHT22;22788;51.434;6.786;2023-04-16T03:26:16;9.70;99.90
36856;DHT22;22788;51.434;6.786;2023-04-16T03:28:42;9.70;99.90
36856;DHT22;22788;51.434;6.786;2023-04-16T03:31:08;9.70;99.90
36856;DHT22;22788;51.434;6.786;2023-04-16T03:33:33;9.70;99.90
36856;DHT22;22788;51.434;6.786;2023-04-16T03:35:59;9.70;99.90
36856;DHT22;22788;51.434;6.786;2023-04-16T03:38:26;9.60;99.90
36856;DHT22;22788;51.434;6.786;2023-04-16T03:40:51;9.70;99.90
36856;DHT22;22788;51.434;6.786;2023-04-16T03:43:17;9.80;99.90
36856;DHT22;22788;51.434;6.786;2023-04-16T03:45:43;9.80;99.90
36856;DHT22;22788;51.434;6.786;2023-04-16T03:48:08;9.80;99.90
36856;DHT22;22788;51.434;6.786;2023-04-16T03:50:34;9.80;99.90
36856;DHT22;22788;51.434;6.786;2023-04-16T03:53:00;9.70;99.90
36856;DHT22;22788;51.434;6.786;2023-04-16T03:55:27;9.70;99.90
36856;DHT22;22788;51.434;6.786;2023-04-16T03:57:53;9.80;99.90
36856;DHT22;22788;51.434;6.786;2023-04-16T04:00:18;10.00;99.90
36856;DHT22;22788;51.434;6.786;2023-04-16T04:02:44;9.90;99.90
36856;DHT22;22788;51.434;6.786;2023-04-16T04:05:10;9.80;99.90
36856;DHT22;22788;51.434;6.786;2023-04-16T04:07:35;9.80;99.90
36856;DHT22;22788;51.434;6.786;2023-04-16T04:10:01;9.70;99.90
36856;DHT22;22788;51.434;6.786;2023-04-16T04:12:28;9.60;99.90
36856;DHT22;22788;51.434;6.786;2023-04-16T04:14:53;9.50;99.90
36856;DHT22;22788;51.434;6.786;2023-04-16T04:17:19;9.50;99.90
36856;DHT22;22788;51.434;6.786;2023-04-16T04:19:44;9.60;99.90
36856;DHT22;22788;51.434;6.786;2023-04-16T04:22:10;9.70;99.90
36856;DHT22;22788;51.434;6.786;2023-04-16T04:24:36;9.70;99.90
36856;DHT22;22788;51.434;6.786;2023-04-16T04:27:01;9.60;99.90
36856;DHT22;22788;51.434;6.786;2023-04-16T04:29:28;9.60;99.90
36856;DHT22;22788;51.434;6.786;2023-04-16T04:31:54;9.60;99.90
36856;DHT22;22788;51.434;6.786;2023-04-16T04:34:19;9.50;99.90
36856;DHT22;22788;51.434;6.786;2023-04-16T04:36:45;9.50;99.90
36856;DHT22;22788;51.434;6.786;2023-04-16T04:39:10;9.60;99.90
36856;DHT22;22788;51.434;6.786;2023-04-16T04:41:36;9.60;99.90
36856;DHT22;22788;51.434;6.786;2023-04-16T04:44:02;9.60;99.90
36856;DHT22;22788;51.434;6.786;2023-04-16T04:46:29;9.60;99.90
36856;DHT22;22788;51.434;6.786;2023-04-16T04:48:54;9.60;99.90
36856;DHT22;22788;51.434;6.786;2023-04-16T04:51:20;9.60;99.90
36856;DHT22;22788;51.434;6.786;2023-04-16T04:53:45;9.50;99.90
36856;DHT22;22788;51.434;6.786;2023-04-16T04:56:11;9.50;99.90
36856;DHT22;22788;51.434;6.786;2023-04-16T04:58:37;9.60;99.90
36856;DHT22;22788;51.434;6.786;2023-04-16T05:01:02;9.60;99.90
36856;DHT22;22788;51.434;6.786;2023-04-16T05:03:29;9.70;99.90
36856;DHT22;22788;51.434;6.786;2023-04-16T05:05:55;9.60;99.90
36856;DHT22;22788;51.434;6.786;2023-04-16T05:08:20;9.70;99.90
36856;DHT22;22788;51.434;6.786;2023-04-16T05:10:46;9.80;99.90
36856;DHT22;22788;51.434;6.786;2023-04-16T05:13:12;9.70;99.90
36856;DHT22;22788;51.434;6.786;2023-04-16T05:15:37;9.70;99.90
36856;DHT22;22788;51.434;6.786;2023-04-16T05:18:03;9.70;99.90
36856;DHT22;22788;51.434;6.786;2023-04-16T05:20:30;9.70;99.90
36856;DHT22;22788;51.434;6.786;2023-04-16T05:22:56;9.60;99.90
36856;DHT22;22788;51.434;6.786;2023-04-16T05:25:21;9.60;99.90
36856;DHT22;22788;51.434;6.786;2023-04-16T05:27:47;9.60;99.90
36856;DHT22;22788;51.434;6.786;2023-04-16T05:30:12;9.60;99.90
36856;DHT22;22788;51.434;6.786;2023-04-16T05:32:38;9.60;99.90
36856;DHT22;22788;51.434;6.786;2023-04-16T05:35:05;9.60;99.90
36856;DHT22;22788;51.434;6.786;2023-04-16T05:37:32;9.60;99.90
36856;DHT22;22788;51.434;6.786;2023-04-16T05:39:57;9.60;99.90
36856;DHT22;22788;51.434;6.786;2023-04-16T05:42:23;9.60;99.90
36856;DHT22;22788;51.434;6.786;2023-04-16T05:44:50;9.60;99.90
36856;DHT22;22788;51.434;6.786;2023-04-16T05:47:15;9.50;99.90
36856;DHT22;22788;51.434;6.786;2023-04-16T05:49:41;9.50;99.90
36856;DHT22;22788;51.434;6.786;2023-04-16T05:52:06;9.60;99.90
36856;DHT22;22788;51.434;6.786;2023-04-16T05:54:33;9.60;99.90
36856;DHT22;22788;51.434;6.786;2023-04-16T05:56:59;9.70;99.90
36856;DHT22;22788;51.434;6.786;2023-04-16T05:59:25;9.80;99.90
36856;DHT22;22788;51.434;6.786;2023-04-16T06:01:50;9.80;99.90
36856;DHT22;22788;51.434;6.786;2023-04-16T06:04:16;9.80;99.90
36856;DHT22;22788;51.434;6.786;2023-04-16T06:06:41;9.80;99.90
36856;DHT22;22788;51.434;6.786;2023-04-16T06:09:07;9.80;99.90
36856;DHT22;22788;51.434;6.786;2023-04-16T06:11:34;9.80;99.90
36856;DHT22;22788;51.434;6.786;2023-04-16T06:14:00;9.70;99.90
36856;DHT22;22788;51.434;6.786;2023-04-16T06:16:25;9.70;99.90
36856;DHT22;22788;51.434;6.786;2023-04-16T06:18:51;9.70;99.90
36856;DHT22;22788;51.434;6.786;2023-04-16T06:21:17;9.60;99.90
36856;DHT22;22788;51.434;6.786;2023-04-16T06:23:42;9.60;99.90
36856;DHT22;22788;51.434;6.786;2023-04-16T06:26:08;9.60;99.90
36856;DHT22;22788;51.434;6.786;2023-04-16T06:28:35;9.60;99.90
36856;DHT22;22788;51.434;6.786;2023-04-16T06:31:00;9.70;99.90
36856;DHT22;22788;51.434;6.786;2023-04-16T06:33:26;9.70;99.90
36856;DHT22;22788;51.434;6.786;2023-04-16T06:35:52;9.70;99.90
36856;DHT22;22788;51.434;6.786;2023-04-16T06:38:17;9.70;99.90
36856;DHT22;22788;51.434;6.786;2023-04-16T06:40:43;9.70;99.90
36856;DHT22;22788;51.434;6.786;2023-04-16T06:43:09;9.60;99.90
36856;DHT22;22788;51.434;6.786;2023-04-16T06:45:36;9.70;99.90
36856;DHT22;22788;51.434;6.786;2023-04-16T06:48:01;9.80;99.90
36856;DHT22;22788;51.434;6.786;2023-04-16T06:50:27;9.70;99.90
36856;DHT22;22788;51.434;6.786;2023-04-16T06:52:53;9.70;99.90
36856;DHT22;22788;51.434;6.786;2023-04-16T06:55:18;9.80;99.90
36856;DHT22;22788;51.434;6.786;2023-04-16T06:57:44;9.80;99.90
36856;DHT22;22788;51.434;6.786;2023-04-16T07:00:10;9.70;99.90
36856;DHT22;22788;51.434;6.786;2023-04-16T07:02:37;9.70;99.90
36856;DHT22;22788;51.434;6.786;2023-04-16T07:05:03;9.70;99.90
36856;DHT22;22788;51.434;6.786;2023-04-16T07:07:29;9.70;99.90
36856;DHT22;22788;51.434;6.786;2023-04-16T07:09:55;9.70;99.90
36856;DHT22;22788;51.434;6.786;2023-04-16T07:12:20;9.70;99.90
36856;DHT22;22788;51.434;6.786;2023-04-16T07:14:46;9.70;99.90
36856;DHT22;22788;51.434;6.786;2023-04-16T07:17:12;9.70;99.90
36856;DHT22;22788;51.434;6.786;2023-04-16T07:19:39;9.70;99.90
36856;DHT22;22788;51.434;6.786;2023-04-16T07:22:04;9.70;99.90
36856;DHT22;22788;51.434;6.786;2023-04-16T07:24:30;9.70;99.90
36856;DHT22;22788;51.434;6.786;2023-04-16T07:26:55;9.70;99.90
36856;DHT22;22788;51.434;6.786;2023-04-16T07:29:21;9.70;99.90
36856;DHT22;22788;51.434;6.786;2023-04-16T07:31:47;9.80;99.90
36856;DHT22;22788;51.434;6.786;2023-04-16T07:34:13;9.80;99.90
36856;DHT22;22788;51.434;6.786;2023-04-16T07:36:40;9.90;99.90
36856;DHT22;22788;51.434;6.786;2023-04-16T07:39:05;9.90;99.90
36856;DHT22;22788;51.434;6.786;2023-04-16T07:41:31;9.90;99.90
36856;DHT22;22788;51.434;6.786;2023-04-16T07:43:57;9.90;99.90
36856;DHT22;22788;51.434;6.786;2023-04-16T07:46:23;9.90;99.90
36856;DHT22;22788;51.434;6.786;2023-04-16T07:48:48;9.90;99.90
36856;DHT22;22788;51.434;6.786;2023-04-16T07:51:14;9.90;99.90
36856;DHT22;22788;51.434;6.786;2023-04-16T07:53:41;9.90;99.90
36856;DHT22;22788;51.434;6.786;2023-04-16T07:56:07;9.90;99.90
36856;DHT22;22788;51.434;6.786;2023-04-16T07:58:33;9.90;99.90
36856;DHT22;22788;51.434;6.786;2023-04-16T08:00:58;9.90;99.90
36856;DHT22;22788;51.434;6.786;2023-04-16T08:03:24;10.00;99.90
36856;DHT22;22788;51.434;6.786;2023-04-16T08:05:49;10.00;99.90
36856;DHT22;22788;51.434;6.786;2023-04-16T08:08:15;10.00;99.90
36856;DHT22;22788;51.434;6.786;2023-04-16T08:10:42;10.00;99.90
36856;DHT22;22788;51.434;6.786;2023-04-16T08:13:08;10.10;99.90
36856;DHT22;22788;51.434;6.786;2023-04-16T08:15:33;10.00;99.90
36856;DHT22;22788;51.434;6.786;2023-04-16T08:17:59;10.10;99.90
36856;DHT22;22788;51.434;6.786;2023-04-16T08:20:25;10.10;99.90
36856;DHT22;22788;51.434;6.786;2023-04-16T08:22:52;10.10;99.90
36856;DHT22;22788;51.434;6.786;2023-04-16T08:25:18;10.10;99.90
36856;DHT22;22788;51.434;6.786;2023-04-16T08:27:45;10.10;99.90
36856;DHT22;22788;51.434;6.786;2023-04-16T08:30:11;10.10;99.90
36856;DHT22;22788;51.434;6.786;2023-04-16T08:32:37;10.10;99.90
36856;DHT22;22788;51.434;6.786;2023-04-16T08:35:03;10.10;99.90
36856;DHT22;22788;51.434;6.786;2023-04-16T08:37:28;10.20;99.90
36856;DHT22;22788;51.434;6.786;2023-04-16T08:39:54;10.20;99.90
36856;DHT22;22788;51.434;6.786;2023-04-16T08:42:23;10.20;99.90
36856;DHT22;22788;51.434;6.786;2023-04-16T08:45:01;10.20;99.90
36856;DHT22;22788;51.434;6.786;2023-04-16T08:47:28;10.30;99.90
36856;DHT22;22788;51.434;6.786;2023-04-16T08:49:56;10.40;99.90
36856;DHT22;22788;51.434;6.786;2023-04-16T08:52:23;10.40;99.90
36856;DHT22;22788;51.434;6.786;2023-04-16T08:54:56;10.40;99.90
36856;DHT22;22788;51.434;6.786;2023-04-16T08:57:41;10.40;99.90
36856;DHT22;22788;51.434;6.786;2023-04-16T09:00:11;10.50;99.90
36856;DHT22;22788;51.434;6.786;2023-04-16T09:02:38;10.50;99.90
36856;DHT22;22788;51.434;6.786;2023-04-16T09:05:07;10.50;99.90
36856;DHT22;22788;51.434;6.786;2023-04-16T09:07:34;10.50;99.90
36856;DHT22;22788;51.434;6.786;2023-04-16T09:10:01;10.50;99.90
36856;DHT22;22788;51.434;6.786;2023-04-16T09:12:27;10.60;99.90
36856;DHT22;22788;51.434;6.786;2023-04-16T09:14:55;10.60;99.90
36856;DHT22;22788;51.434;6.786;2023-04-16T09:17:22;10.60;99.90
36856;DHT22;22788;51.434;6.786;2023-04-16T09:19:48;10.60;99.90
36856;DHT22;22788;51.434;6.786;2023-04-16T09:22:14;10.60;99.90
36856;DHT22;22788;51.434;6.786;2023-04-16T09:24:39;10.70;99.90
36856;DHT22;22788;51.434;6.786;2023-04-16T09:27:06;10.70;99.90
36856;DHT22;22788;51.434;6.786;2023-04-16T09:29:33;10.70;99.90
36856;DHT22;22788;51.434;6.786;2023-04-16T09:32:01;10.80;99.90
36856;DHT22;22788;51.434;6.786;2023-04-16T09:34:28;10.80;99.90
36856;DHT22;22788;51.434;6.786;2023-04-16T09:36:55;10.80;99.90
36856;DHT22;22788;51.434;6.786;2023-04-16T09:39:38;10.80;99.90
36856;DHT22;22788;51.434;6.786;2023-04-16T09:42:04;10.80;99.90
36856;DHT22;22788;51.434;6.786;2023-04-16T09:44:34;10.80;99.90
36856;DHT22;22788;51.434;6.786;2023-04-16T09:47:05;10.80;99.90
36856;DHT22;22788;51.434;6.786;2023-04-16T09:49:33;10.80;99.90
36856;DHT22;22788;51.434;6.786;2023-04-16T09:51:59;10.80;99.90
36856;DHT22;22788;51.434;6.786;2023-04-16T09:54:25;10.90;99.90
36856;DHT22;22788;51.434;6.786;2023-04-16T09:56:50;10.80;99.90
36856;DHT22;22788;51.434;6.786;2023-04-16T09:59:21;10.90;99.90
36856;DHT22;22788;51.434;6.786;2023-04-16T10:01:47;10.90;99.90
36856;DHT22;22788;51.434;6.786;2023-04-16T10:04:13;11.00;99.90
36856;DHT22;22788;51.434;6.786;2023-04-16T10:06:40;11.00;99.90
36856;DHT22;22788;51.434;6.786;2023-04-16T10:09:07;11.10;99.90
36856;DHT22;22788;51.434;6.786;2023-04-16T10:11:33;11.10;99.90
36856;DHT22;22788;51.434;6.786;2023-04-16T10:13:58;11.10;99.90
36856;DHT22;22788;51.434;6.786;2023-04-16T10:16:24;11.10;99.90
36856;DHT22;22788;51.434;6.786;2023-04-16T10:18:50;11.10;99.90
36856;DHT22;22788;51.434;6.786;2023-04-16T10:21:16;11.20;99.90
36856;DHT22;22788;51.434;6.786;2023-04-16T10:23:43;11.20;99.90
36856;DHT22;22788;51.434;6.786;2023-04-16T10:26:09;11.30;99.90
36856;DHT22;22788;51.434;6.786;2023-04-16T10:28:35;11.40;99.90
36856;DHT22;22788;51.434;6.786;2023-04-16T10:31:02;11.40;99.90
36856;DHT22;22788;51.434;6.786;2023-04-16T10:33:30;11.40;99.90
36856;DHT22;22788;51.434;6.786;2023-04-16T10:36:10;11.40;99.90
36856;DHT22;22788;51.434;6.786;2023-04-16T10:38:38;11.50;99.90
36856;DHT22;22788;51.434;6.786;2023-04-16T10:41:05;11.50;99.90
36856;DHT22;22788;51.434;6.786;2023-04-16T10:43:33;11.50;99.90
36856;DHT22;22788;51.434;6.786;2023-04-16T10:46:19;11.50;99.90
36856;DHT22;22788;51.434;6.786;2023-04-16T10:48:46;11.50;99.90
36856;DHT22;22788;51.434;6.786;2023-04-16T10:51:23;11.50;99.90
36856;DHT22;22788;51.434;6.786;2023-04-16T10:53:49;11.60;99.90
36856;DHT22;22788;51.434;6.786;2023-04-16T10:56:22;11.60;99.90
36856;DHT22;22788;51.434;6.786;2023-04-16T10:58:48;11.70;99.90
36856;DHT22;22788;51.434;6.786;2023-04-16T11:01:13;11.70;99.90
36856;DHT22;22788;51.434;6.786;2023-04-16T11:03:46;11.80;99.90
36856;DHT22;22788;51.434;6.786;2023-04-16T11:06:13;11.70;99.90
36856;DHT22;22788;51.434;6.786;2023-04-16T11:08:39;11.60;99.90
36856;DHT22;22788;51.434;6.786;2023-04-16T11:11:05;11.70;99.90
36856;DHT22;22788;51.434;6.786;2023-04-16T11:13:32;11.70;99.90
36856;DHT22;22788;51.434;6.786;2023-04-16T11:16:00;11.70;99.90
36856;DHT22;22788;51.434;6.786;2023-04-16T11:18:26;11.80;99.90
36856;DHT22;22788;51.434;6.786;2023-04-16T11:20:52;11.70;99.90
36856;DHT22;22788;51.434;6.786;2023-04-16T11:23:18;11.80;99.90
36856;DHT22;22788;51.434;6.786;2023-04-16T11:25:44;11.70;99.90
36856;DHT22;22788;51.434;6.786;2023-04-16T11:28:09;11.80;99.90
36856;DHT22;22788;51.434;6.786;2023-04-16T11:30:38;11.70;99.90
36856;DHT22;22788;51.434;6.786;2023-04-16T11:33:04;11.80;99.90
36856;DHT22;22788;51.434;6.786;2023-04-16T11:35:30;11.90;99.90
36856;DHT22;22788;51.434;6.786;2023-04-16T11:37:56;11.90;99.90
36856;DHT22;22788;51.434;6.786;2023-04-16T11:40:22;11.90;99.90
36856;DHT22;22788;51.434;6.786;2023-04-16T11:42:48;12.00;99.90
36856;DHT22;22788;51.434;6.786;2023-04-16T11:45:13;12.10;99.90
36856;DHT22;22788;51.434;6.786;2023-04-16T11:47:45;12.10;99.90
36856;DHT22;22788;51.434;6.786;2023-04-16T11:50:19;12.30;99.90
36856;DHT22;22788;51.434;6.786;2023-04-16T11:52:45;12.30;99.90
36856;DHT22;22788;51.434;6.786;2023-04-16T11:55:11;12.30;99.90
36856;DHT22;22788;51.434;6.786;2023-04-16T11:57:37;12.30;99.90
36856;DHT22;22788;51.434;6.786;2023-04-16T12:00:03;12.30;99.90
36856;DHT22;22788;51.434;6.786;2023-04-16T12:02:36;12.30;99.90
36856;DHT22;22788;51.434;6.786;2023-04-16T12:05:04;12.30;99.90
36856;DHT22;22788;51.434;6.786;2023-04-16T12:07:30;12.40;99.90
36856;DHT22;22788;51.434;6.786;2023-04-16T12:10:05;12.50;99.90
36856;DHT22;22788;51.434;6.786;2023-04-16T12:12:31;12.50;99.90
36856;DHT22;22788;51.434;6.786;2023-04-16T12:14:57;12.70;99.90
36856;DHT22;22788;51.434;6.786;2023-04-16T12:17:23;12.40;99.90
36856;DHT22;22788;51.434;6.786;2023-04-16T12:19:50;12.40;99.90
36856;DHT22;22788;51.434;6.786;2023-04-16T12:22:17;12.40;99.90
36856;DHT22;22788;51.434;6.786;2023-04-16T12:24:54;12.40;99.90
36856;DHT22;22788;51.434;6.786;2023-04-16T12:27:20;12.40;99.90
36856;DHT22;22788;51.434;6.786;2023-04-16T12:30:02;12.40;99.90
36856;DHT22;22788;51.434;6.786;2023-04-16T12:32:27;12.40;99.90
36856;DHT22;22788;51.434;6.786;2023-04-16T12:34:53;12.40;99.90
36856;DHT22;22788;51.434;6.786;2023-04-16T12:37:20;12.50;99.90
36856;DHT22;22788;51.434;6.786;2023-04-16T12:39:46;12.50;99.90
36856;DHT22;22788;51.434;6.786;2023-04-16T12:42:11;13.20;99.90
36856;DHT22;22788;51.434;6.786;2023-04-16T12:44:37;12.50;99.90
36856;DHT22;22788;51.434;6.786;2023-04-16T12:47:03;12.50;99.90
36856;DHT22;22788;51.434;6.786;2023-04-16T12:49:28;12.50;99.90
36856;DHT22;22788;51.434;6.786;2023-04-16T12:51:54;12.50;99.90
36856;DHT22;22788;51.434;6.786;2023-04-16T12:54:21;12.50;99.90
36856;DHT22;22788;51.434;6.786;2023-04-16T12:56:46;12.60;99.90
36856;DHT22;22788;51.434;6.786;2023-04-16T12:59:12;12.60;99.90
36856;DHT22;22788;51.434;6.786;2023-04-16T13:01:38;12.50;99.90
36856;DHT22;22788;51.434;6.786;2023-04-16T13:04:03;12.50;99.90
36856;DHT22;22788;51.434;6.786;2023-04-16T13:06:29;12.50;99.90
36856;DHT22;22788;51.434;6.786;2023-04-16T13:08:55;12.50;99.90
36856;DHT22;22788;51.434;6.786;2023-04-16T13:11:22;12.50;99.90
36856;DHT22;22788;51.434;6.786;2023-04-16T13:13:48;12.50;99.90
36856;DHT22;22788;51.434;6.786;2023-04-16T13:16:13;12.50;99.90
36856;DHT22;22788;51.434;6.786;2023-04-16T13:18:39;12.40;99.90
36856;DHT22;22788;51.434;6.786;2023-04-16T13:21:04;12.40;99.90
36856;DHT22;22788;51.434;6.786;2023-04-16T13:23:30;12.40;99.90
36856;DHT22;22788;51.434;6.786;2023-04-16T13:25:56;12.50;99.90
36856;DHT22;22788;51.434;6.786;2023-04-16T13:28:23;12.60;99.90
36856;DHT22;22788;51.434;6.786;2023-04-16T13:30:48;12.50;99.90
36856;DHT22;22788;51.434;6.786;2023-04-16T13:33:14;12.50;99.90
36856;DHT22;22788;51.434;6.786;2023-04-16T13:35:40;12.50;99.90
36856;DHT22;22788;51.434;6.786;2023-04-16T13:38:05;12.50;99.90
36856;DHT22;22788;51.434;6.786;2023-04-16T13:40:31;12.50;99.90
36856;DHT22;22788;51.434;6.786;2023-04-16T13:42:57;12.50;99.90
36856;DHT22;22788;51.434;6.786;2023-04-16T13:45:24;12.50;99.90
36856;DHT22;22788;51.434;6.786;2023-04-16T13:47:49;12.60;99.90
36856;DHT22;22788;51.434;6.786;2023-04-16T13:50:15;12.60;99.90
36856;DHT22;22788;51.434;6.786;2023-04-16T13:52:41;12.70;99.90
36856;DHT22;22788;51.434;6.786;2023-04-16T13:55:07;12.70;99.90
36856;DHT22;22788;51.434;6.786;2023-04-16T13:57:33;12.60;99.90
36856;DHT22;22788;51.434;6.786;2023-04-16T13:59:58;12.50;99.90
36856;DHT22;22788;51.434;6.786;2023-04-16T14:02:25;12.60;99.90
36856;DHT22;22788;51.434;6.786;2023-04-16T14:04:51;12.50;99.90
36856;DHT22;22788;51.434;6.786;2023-04-16T14:07:16;12.50;99.90
36856;DHT22;22788;51.434;6.786;2023-04-16T14:09:42;12.50;99.90
36856;DHT22;22788;51.434;6.786;2023-04-16T14:12:08;12.50;99.90
36856;DHT22;22788;51.434;6.786;2023-04-16T14:14:34;12.60;99.90
36856;DHT22;22788;51.434;6.786;2023-04-16T14:17:00;12.70;99.90
36856;DHT22;22788;51.434;6.786;2023-04-16T14:19:27;12.70;99.90
36856;DHT22;22788;51.434;6.786;2023-04-16T14:21:53;12.80;99.90
36856;DHT22;22788;51.434;6.786;2023-04-16T14:24:18;12.80;99.90
36856;DHT22;22788;51.434;6.786;2023-04-16T14:26:44;12.70;99.90
36856;DHT22;22788;51.434;6.786;2023-04-16T14:29:09;12.70;99.90
36856;DHT22;22788;51.434;6.786;2023-04-16T14:31:35;12.70;99.90
36856;DHT22;22788;51.434;6.786;2023-04-16T14:34:01;12.70;99.90
36856;DHT22;22788;51.434;6.786;2023-04-16T14:36:29;12.80;99.90
36856;DHT22;22788;51.434;6.786;2023-04-16T14:38:54;12.80;99.90
36856;DHT22;22788;51.434;6.786;2023-04-16T14:41:20;12.90;99.90
36856;DHT22;22788;51.434;6.786;2023-04-16T14:43:45;12.90;99.90
36856;DHT22;22788;51.434;6.786;2023-04-16T14:46:11;12.90;99.90
36856;DHT22;22788;51.434;6.786;2023-04-16T14:48:37;12.90;99.90
36856;DHT22;22788;51.434;6.786;2023-04-16T14:51:02;12.90;99.90
36856;DHT22;22788;51.434;6.786;2023-04-16T14:53:30;12.80;99.90
36856;DHT22;22788;51.434;6.786;2023-04-16T14:55:55;12.80;99.90
36856;DHT22;22788;51.434;6.786;2023-04-16T14:58:21;12.80;99.90
36856;DHT22;22788;51.434;6.786;2023-04-16T15:00:46;12.80;99.90
36856;DHT22;22788;51.434;6.786;2023-04-16T15:03:12;12.80;99.90
36856;DHT22;22788;51.434;6.786;2023-04-16T15:05:38;12.80;99.90
36856;DHT22;22788;51.434;6.786;2023-04-16T15:08:03;12.90;99.90
36856;DHT22;22788;51.434;6.786;2023-04-16T15:10:30;12.90;99.90
36856;DHT22;22788;51.434;6.786;2023-04-16T15:12:56;12.90;99.90
36856;DHT22;22788;51.434;6.786;2023-04-16T15:15:22;12.90;99.90
36856;DHT22;22788;51.434;6.786;2023-04-16T15:17:47;12.90;99.90
36856;DHT22;22788;51.434;6.786;2023-04-16T15:20:13;13.00;99.90
36856;DHT22;22788;51.434;6.786;2023-04-16T15:22:39;13.10;99.90
36856;DHT22;22788;51.434;6.786;2023-04-16T15:25:05;13.00;99.90
36856;DHT22;22788;51.434;6.786;2023-04-16T15:27:33;13.10;99.90
36856;DHT22;22788;51.434;6.786;2023-04-16T15:29:58;13.20;99.90
36856;DHT22;22788;51.434;6.786;2023-04-16T15:32:24;13.10;99.90